Time;durP1;ratioP1;P1;durP2;ratioP2;P2;SDS_P1;SDS_P2;PMS_P1;PMS_P2;Temp;Humidity;BMP_temperature;BMP_pressure;BME280_temperature;BME280_humidity;BME280_pressure;Samples;Min_cycle;Max_cycle;Signal;HPM_P1;HPM_P2
2021/05/10 00:01:19;;;;;;;2.20;0.97;;;;;;;;;;5001494;28;20056;-80
2021/05/10 00:03:45;;;;;;;2.50;0.93;;;;;;;;;;4984785;28;20033;-80
2021/05/10 00:06:10;;;;;;;1.80;0.90;;;;;;;;;;5001907;28;20025;-80
2021/05/10 00:08:35;;;;;;;2.80;1.10;;;;;;;;;;5002451;28;20055;-80
2021/05/10 00:11:01;;;;;;;2.97;1.00;;;;;;;;;;5003336;28;20031;-80
2021/05/10 00:13:27;;;;;;;2.30;0.90;;;;;;;;;;5005048;28;20124;-80
2021/05/10 00:15:53;;;;;;;1.42;0.82;;;;;;;;;;5004397;28;20037;-80
2021/05/10 00:18:18;;;;;;;1.67;0.90;;;;;;;;;;5005836;28;20025;-80
2021/05/10 00:20:45;;;;;;;2.40;1.00;;;;;;;;;;5004864;28;20030;-80
2021/05/10 00:23:11;;;;;;;2.55;1.00;;;;;;;;;;5004666;28;20112;-80
2021/05/10 00:25:37;;;;;;;2.40;0.88;;;;;;;;;;4989332;28;20116;-80
2021/05/10 00:28:03;;;;;;;2.50;1.00;;;;;;;;;;5005328;28;20028;-80
2021/05/10 00:30:28;;;;;;;2.00;0.93;;;;;;;;;;5004610;28;20036;-79
2021/05/10 00:32:54;;;;;;;1.90;0.83;;;;;;;;;;5004676;28;20029;-80
2021/05/10 00:35:20;;;;;;;3.10;0.93;;;;;;;;;;5005235;28;20407;-80
2021/05/10 00:37:45;;;;;;;2.17;0.95;;;;;;;;;;5005615;28;20037;-80
2021/05/10 00:40:12;;;;;;;3.07;0.73;;;;;;;;;;5004733;28;20021;-80
2021/05/10 00:42:38;;;;;;;2.63;1.00;;;;;;;;;;4988686;28;20037;-80
2021/05/10 00:45:04;;;;;;;2.17;0.90;;;;;;;;;;5021495;28;20388;-80
2021/05/10 00:47:29;;;;;;;2.08;0.90;;;;;;;;;;5005030;28;20395;-80
2021/05/10 00:49:55;;;;;;;1.67;1.00;;;;;;;;;;4988601;28;20026;-80
2021/05/10 00:52:20;;;;;;;2.60;1.03;;;;;;;;;;5004907;28;20028;-80
2021/05/10 00:54:45;;;;;;;1.67;0.80;;;;;;;;;;5004291;28;20025;-82
2021/05/10 00:57:11;;;;;;;2.43;0.90;;;;;;;;;;5004382;28;20116;-79
2021/05/10 00:59:37;;;;;;;2.57;0.90;;;;;;;;;;5005173;28;20072;-80
2021/05/10 01:02:02;;;;;;;1.73;0.80;;;;;;;;;;5021104;28;20056;-80
2021/05/10 01:04:27;;;;;;;1.83;0.80;;;;;;;;;;5021028;28;20549;-80
2021/05/10 01:06:53;;;;;;;2.47;0.90;;;;;;;;;;5004599;28;20026;-79
2021/05/10 01:09:18;;;;;;;1.70;0.90;;;;;;;;;;4988103;28;20057;-80
2021/05/10 01:11:43;;;;;;;2.00;0.90;;;;;;;;;;5003912;28;20037;-80
2021/05/10 01:14:08;;;;;;;2.13;1.00;;;;;;;;;;5004373;28;20396;-80
2021/05/10 01:16:34;;;;;;;2.60;1.00;;;;;;;;;;5004361;28;20088;-80
2021/05/10 01:18:59;;;;;;;1.63;0.70;;;;;;;;;;5004617;28;20059;-80
2021/05/10 01:21:25;;;;;;;4.33;0.90;;;;;;;;;;5003534;28;20117;-80
2021/05/10 01:23:50;;;;;;;2.90;0.80;;;;;;;;;;5003029;28;20052;-80
2021/05/10 01:26:15;;;;;;;1.63;0.83;;;;;;;;;;5004759;28;20488;-81
2021/05/10 01:28:41;;;;;;;1.90;0.83;;;;;;;;;;5003947;28;20387;-81
2021/05/10 01:31:06;;;;;;;2.33;0.93;;;;;;;;;;5003508;28;20031;-80
2021/05/10 01:33:32;;;;;;;2.20;0.90;;;;;;;;;;5003646;28;20025;-80
2021/05/10 01:35:57;;;;;;;2.37;1.00;;;;;;;;;;5003747;28;20434;-80
2021/05/10 01:38:22;;;;;;;1.80;0.80;;;;;;;;;;5004034;28;20106;-80
2021/05/10 01:40:48;;;;;;;1.53;0.80;;;;;;;;;;5003967;28;20607;-80
2021/05/10 01:43:15;;;;;;;1.67;0.80;;;;;;;;;;5003928;28;20049;-80
2021/05/10 01:45:41;;;;;;;2.47;0.90;;;;;;;;;;5004370;28;20033;-80
2021/05/10 01:48:07;;;;;;;2.37;0.90;;;;;;;;;;5003817;28;20029;-80
2021/05/10 01:50:33;;;;;;;;;;;;;;;;;;4988037;28;20507;-80
2021/05/10 01:52:58;;;;;;;2.92;0.80;;;;;;;;;;5018864;28;19967;-81
2021/05/10 01:55:24;;;;;;;1.53;0.83;;;;;;;;;;5003402;28;20029;-80
2021/05/10 01:57:51;;;;;;;2.35;0.80;;;;;;;;;;4985122;28;20120;-80
2021/05/10 02:00:20;;;;;;;2.63;0.80;;;;;;;;;;5004084;28;20021;-81
2021/05/10 02:02:46;;;;;;;1.73;0.80;;;;;;;;;;5003766;28;20494;-81
2021/05/10 02:05:13;;;;;;;3.97;0.80;;;;;;;;;;5020097;28;20026;-80
2021/05/10 02:07:43;;;;;;;2.17;0.90;;;;;;;;;;5002699;28;20021;-81
2021/05/10 02:10:13;;;;;;;1.73;0.88;;;;;;;;;;5019517;28;20048;-80
2021/05/10 02:12:39;;;;;;;1.35;0.70;;;;;;;;;;5004248;28;20029;-80
2021/05/10 02:15:06;;;;;;;2.40;0.97;;;;;;;;;;5003113;28;20025;-81
2021/05/10 02:17:31;;;;;;;2.85;0.98;;;;;;;;;;5003077;28;20179;-80
2021/05/10 02:19:56;;;;;;;2.10;0.87;;;;;;;;;;5003810;28;20057;-81
2021/05/10 02:22:22;;;;;;;1.77;0.80;;;;;;;;;;5003353;28;20480;-81
2021/05/10 02:24:47;;;;;;;1.50;0.77;;;;;;;;;;5002941;28;20503;-80
2021/05/10 02:27:12;;;;;;;2.13;0.83;;;;;;;;;;4987321;28;20397;-81
2021/05/10 02:29:38;;;;;;;1.40;0.70;;;;;;;;;;5003200;28;20112;-80
2021/05/10 02:32:03;;;;;;;1.80;0.90;;;;;;;;;;5018179;28;20025;-81
2021/05/10 02:34:29;;;;;;;1.30;0.60;;;;;;;;;;5003269;28;20025;-80
2021/05/10 02:36:54;;;;;;;1.27;0.70;;;;;;;;;;5003177;28;20101;-80
2021/05/10 02:39:20;;;;;;;1.57;0.80;;;;;;;;;;5002276;28;20028;-80
2021/05/10 02:41:45;;;;;;;1.90;0.80;;;;;;;;;;5018936;28;20029;-80
2021/05/10 02:44:11;;;;;;;1.30;0.60;;;;;;;;;;4990281;28;20061;-81
2021/05/10 02:46:36;;;;;;;1.53;0.80;;;;;;;;;;5002886;28;20143;-80
2021/05/10 02:49:01;;;;;;;1.83;0.97;;;;;;;;;;5003031;28;20024;-80
2021/05/10 02:51:27;;;;;;;1.40;0.70;;;;;;;;;;5002495;28;20024;-80
2021/05/10 02:53:52;;;;;;;1.40;0.70;;;;;;;;;;5002845;28;20432;-80
2021/05/10 02:56:17;;;;;;;1.70;0.70;;;;;;;;;;5018961;28;20033;-80
2021/05/10 02:58:43;;;;;;;1.90;0.90;;;;;;;;;;5003391;28;20029;-81
2021/05/10 03:01:08;;;;;;;1.63;0.80;;;;;;;;;;5001822;28;20045;-80
2021/05/10 03:03:34;;;;;;;1.47;0.77;;;;;;;;;;5001931;28;20680;-81
2021/05/10 03:05:59;;;;;;;1.10;0.57;;;;;;;;;;5002476;28;20465;-80
2021/05/10 03:08:24;;;;;;;1.77;0.90;;;;;;;;;;5002899;28;20152;-80
2021/05/10 03:10:50;;;;;;;1.67;0.73;;;;;;;;;;5018456;28;20026;-81
2021/05/10 03:13:15;;;;;;;1.93;1.00;;;;;;;;;;5003094;28;20021;-80
2021/05/10 03:15:40;;;;;;;1.93;0.80;;;;;;;;;;5002791;28;20036;-81
2021/05/10 03:18:06;;;;;;;2.23;1.00;;;;;;;;;;5002600;28;20040;-80
2021/05/10 03:20:31;;;;;;;1.57;0.70;;;;;;;;;;4986142;28;20057;-80
2021/05/10 03:22:56;;;;;;;2.10;0.80;;;;;;;;;;5002515;28;20056;-80
2021/05/10 03:25:22;;;;;;;2.37;0.90;;;;;;;;;;5002291;28;20396;-81
2021/05/10 03:27:48;;;;;;;1.67;0.70;;;;;;;;;;5002371;28;20057;-80
2021/05/10 03:30:15;;;;;;;1.83;0.90;;;;;;;;;;5018647;28;20033;-81
2021/05/10 03:32:41;;;;;;;1.63;0.90;;;;;;;;;;5002261;28;20048;-80
2021/05/10 03:35:07;;;;;;;2.22;0.90;;;;;;;;;;4986133;28;20022;-80
2021/05/10 03:37:38;;;;;;;1.85;0.75;;;;;;;;;;4986223;28;20079;-80
2021/05/10 03:40:05;;;;;;;1.60;0.80;;;;;;;;;;5002437;28;20026;-80
2021/05/10 03:42:31;;;;;;;1.30;0.70;;;;;;;;;;5002252;28;20026;-82
2021/05/10 03:44:56;;;;;;;1.87;0.80;;;;;;;;;;5002660;28;20075;-80
2021/05/10 03:47:32;;;;;;;1.13;0.67;;;;;;;;;;5005569;28;20480;-80
2021/05/10 03:49:58;;;;;;;1.90;0.95;;;;;;;;;;5008866;28;20081;-80
2021/05/10 03:52:23;;;;;;;1.03;0.50;;;;;;;;;;5005076;28;20033;-80
2021/05/10 03:54:49;;;;;;;1.60;0.60;;;;;;;;;;4989456;28;20025;-81
2021/05/10 03:57:14;;;;;;;2.13;0.80;;;;;;;;;;5006278;28;20059;-80
2021/05/10 04:00:42;;;;;;;1.70;0.70;;;;;;;;;;5010992;28;20032;-81
2021/05/10 04:03:57;;;;;;;1.73;0.80;;;;;;;;;;5022120;28;20097;-81
2021/05/10 04:09:32;;;;;;;1.60;0.70;;;;;;;;;;5026101;28;20107;-81
2021/05/10 04:14:24;;;;;;;1.37;0.70;;;;;;;;;;5022793;28;20112;-81
2021/05/10 04:16:50;;;;;;;1.83;0.77;;;;;;;;;;5023432;28;20037;-81
2021/05/10 04:19:15;;;;;;;1.67;0.73;;;;;;;;;;5020650;28;20397;-81
2021/05/10 04:21:40;;;;;;;2.33;0.80;;;;;;;;;;5023917;28;20473;-81
2021/05/10 04:24:06;;;;;;;1.43;0.77;;;;;;;;;;5008425;28;20033;-81
2021/05/10 04:26:31;;;;;;;1.40;0.80;;;;;;;;;;5008269;28;20033;-82
2021/05/10 04:28:57;;;;;;;1.60;0.80;;;;;;;;;;5023869;28;20071;-80
2021/05/10 04:31:22;;;;;;;1.30;0.70;;;;;;;;;;4990374;28;20036;-81
2021/05/10 04:33:48;;;;;;;1.10;0.67;;;;;;;;;;5007377;28;20032;-80
2021/05/10 04:36:13;;;;;;;1.27;0.63;;;;;;;;;;5007348;28;20055;-81
2021/05/10 04:38:42;;;;;;;1.57;0.80;;;;;;;;;;5006933;28;20064;-81
2021/05/10 04:41:07;;;;;;;1.75;0.80;;;;;;;;;;5007756;28;20018;-82
2021/05/10 04:43:33;;;;;;;1.10;0.60;;;;;;;;;;4990637;28;20029;-82
2021/05/10 04:46:00;;;;;;;1.27;0.63;;;;;;;;;;5006692;28;20562;-80
2021/05/10 04:48:25;;;;;;;;;;;;;;;;;;5007049;28;20048;-81
2021/05/10 04:50:50;;;;;;;1.10;0.60;;;;;;;;;;5022702;28;19913;-81
2021/05/10 04:53:16;;;;;;;1.27;0.60;;;;;;;;;;5007123;28;20426;-81
2021/05/10 04:55:41;;;;;;;1.90;0.80;;;;;;;;;;5006843;28;20071;-81
2021/05/10 04:58:07;;;;;;;2.10;0.70;;;;;;;;;;5005804;28;20117;-80
2021/05/10 05:00:32;;;;;;;1.73;0.80;;;;;;;;;;5022229;28;20021;-81
2021/05/10 05:02:58;;;;;;;1.13;0.60;;;;;;;;;;5006090;28;20032;-81
2021/05/10 05:05:23;;;;;;;1.80;0.70;;;;;;;;;;5022643;28;20028;-80
2021/05/10 05:07:48;;;;;;;1.30;0.70;;;;;;;;;;5002633;28;20033;-80
2021/05/10 05:10:14;;;;;;;1.00;0.60;;;;;;;;;;5003031;28;20060;-82
2021/05/10 05:12:39;;;;;;;1.70;0.70;;;;;;;;;;5006407;28;20022;-81
2021/05/10 05:15:09;;;;;;;1.80;0.77;;;;;;;;;;4989662;28;20280;-80
2021/05/10 05:17:35;;;;;;;1.23;0.60;;;;;;;;;;5002209;28;20030;-81
2021/05/10 05:20:01;;;;;;;1.48;0.75;;;;;;;;;;4990631;28;20385;-80
2021/05/10 05:22:26;;;;;;;1.30;0.70;;;;;;;;;;4990142;28;20404;-80
2021/05/10 05:24:53;;;;;;;1.03;0.60;;;;;;;;;;5005737;28;20030;-82
2021/05/10 05:27:19;;;;;;;1.95;0.73;;;;;;;;;;5007296;28;20033;-81
2021/05/10 05:29:44;;;;;;;1.27;0.63;;;;;;;;;;5005728;28;20025;-80
2021/05/10 05:32:09;;;;;;;1.50;0.60;;;;;;;;;;5004894;28;20025;-80
2021/05/10 05:34:35;;;;;;;1.23;0.53;;;;;;;;;;5005709;28;20083;-80
2021/05/10 05:37:00;;;;;;;1.50;0.70;;;;;;;;;;5005368;28;20071;-80
2021/05/10 05:39:26;;;;;;;1.80;0.90;;;;;;;;;;4989899;28;20029;-81
2021/05/10 05:41:52;;;;;;;1.88;0.75;;;;;;;;;;5005739;28;20040;-81
2021/05/10 05:44:17;;;;;;;1.57;0.70;;;;;;;;;;5005889;28;20123;-80
2021/05/10 05:46:45;;;;;;;1.63;0.87;;;;;;;;;;5005989;28;20420;-82
2021/05/10 05:49:10;;;;;;;1.47;0.60;;;;;;;;;;5007254;28;20025;-81
2021/05/10 05:51:35;;;;;;;1.00;0.50;;;;;;;;;;5006249;28;20028;-80
2021/05/10 05:54:01;;;;;;;1.03;0.60;;;;;;;;;;5006179;28;20021;-80
2021/05/10 05:56:27;;;;;;;1.17;0.60;;;;;;;;;;4989891;28;20194;-81
2021/05/10 05:58:52;;;;;;;1.35;0.70;;;;;;;;;;5022179;28;20021;-81
2021/05/10 06:01:18;;;;;;;1.13;0.60;;;;;;;;;;5022026;28;20044;-80
2021/05/10 06:03:44;;;;;;;1.48;0.70;;;;;;;;;;4990080;28;20116;-80
2021/05/10 06:06:10;;;;;;;1.70;0.63;;;;;;;;;;5005838;28;20091;-80
2021/05/10 06:08:35;;;;;;;0.95;0.65;;;;;;;;;;5020546;28;20480;-80
2021/05/10 06:11:03;;;;;;;1.50;0.60;;;;;;;;;;4988626;28;20044;-82
2021/05/10 06:13:28;;;;;;;1.67;0.63;;;;;;;;;;5005787;28;20094;-80
2021/05/10 06:15:53;;;;;;;1.20;0.60;;;;;;;;;;5005528;28;20111;-81
2021/05/10 06:18:19;;;;;;;1.20;0.67;;;;;;;;;;5006096;28;20021;-81
2021/05/10 06:20:44;;;;;;;1.23;0.70;;;;;;;;;;5022269;28;20048;-80
2021/05/10 06:23:09;;;;;;;1.20;0.60;;;;;;;;;;5004978;28;20033;-80
2021/05/10 06:25:35;;;;;;;1.03;0.67;;;;;;;;;;5004806;28;20033;-79
2021/05/10 06:28:00;;;;;;;1.33;0.80;;;;;;;;;;5021778;28;20110;-80
2021/05/10 06:30:25;;;;;;;1.63;0.60;;;;;;;;;;5037106;28;20032;-79
2021/05/10 06:32:52;;;;;;;1.67;0.77;;;;;;;;;;5021278;28;20033;-80
2021/05/10 06:35:17;;;;;;;;;;;;;;;;;;5021609;28;20024;-79
2021/05/10 06:37:43;;;;;;;1.42;0.70;;;;;;;;;;5037935;28;19909;-79
2021/05/10 06:40:09;;;;;;;1.50;0.70;;;;;;;;;;5004835;28;20515;-80
2021/05/10 06:42:34;;;;;;;1.38;0.60;;;;;;;;;;4984490;28;20033;-79
2021/05/10 06:45:01;;;;;;;1.93;0.63;;;;;;;;;;5003909;28;20120;-80
2021/05/10 06:47:27;;;;;;;1.30;0.60;;;;;;;;;;5005085;28;20053;-79
2021/05/10 06:49:52;;;;;;;1.53;0.70;;;;;;;;;;5004378;28;20059;-80
2021/05/10 06:52:18;;;;;;;0.97;0.50;;;;;;;;;;4987883;28;20036;-79
2021/05/10 06:54:43;;;;;;;1.30;0.60;;;;;;;;;;5004124;28;20025;-79
2021/05/10 06:57:08;;;;;;;1.00;0.60;;;;;;;;;;5037745;28;20052;-80
2021/05/10 06:59:34;;;;;;;0.70;0.50;;;;;;;;;;5020294;28;20021;-80
2021/05/10 07:01:59;;;;;;;0.97;0.60;;;;;;;;;;5021189;28;20022;-79
2021/05/10 07:04:25;;;;;;;1.50;0.70;;;;;;;;;;5038969;28;20084;-80
2021/05/10 07:06:50;;;;;;;1.10;0.63;;;;;;;;;;5004474;28;20089;-80
2021/05/10 07:09:15;;;;;;;1.20;0.70;;;;;;;;;;5004965;28;20436;-81
2021/05/10 07:11:41;;;;;;;1.30;0.60;;;;;;;;;;5004486;28;20127;-79
2021/05/10 07:14:06;;;;;;;1.70;0.60;;;;;;;;;;5005585;28;20028;-80
2021/05/10 07:16:33;;;;;;;1.50;0.70;;;;;;;;;;5004625;28;20060;-80
2021/05/10 07:18:59;;;;;;;1.42;0.65;;;;;;;;;;5005347;28;20034;-80
2021/05/10 07:21:24;;;;;;;1.33;0.60;;;;;;;;;;5024191;28;20537;-80
2021/05/10 07:23:50;;;;;;;0.73;0.50;;;;;;;;;;5008426;28;20021;-79
2021/05/10 07:26:15;;;;;;;1.03;0.60;;;;;;;;;;5008093;28;20133;-80
2021/05/10 07:28:41;;;;;;;1.47;0.60;;;;;;;;;;5024689;28;20090;-79
2021/05/10 07:31:06;;;;;;;1.47;0.60;;;;;;;;;;5007554;28;20423;-78
2021/05/10 07:33:31;;;;;;;1.10;0.60;;;;;;;;;;5024244;28;20021;-80
2021/05/10 07:35:57;;;;;;;2.30;0.80;;;;;;;;;;5024967;28;20029;-79
2021/05/10 07:38:22;;;;;;;1.20;0.60;;;;;;;;;;5007663;28;20074;-79
2021/05/10 07:40:47;;;;;;;1.57;0.70;;;;;;;;;;5009406;28;20052;-79
2021/05/10 07:43:12;;;;;;;1.30;0.70;;;;;;;;;;5009361;28;20034;-80
2021/05/10 07:45:38;;;;;;;1.30;0.60;;;;;;;;;;5009331;28;20025;-79
2021/05/10 07:48:04;;;;;;;1.23;0.60;;;;;;;;;;5007684;28;20056;-79
2021/05/10 07:50:29;;;;;;;1.10;0.63;;;;;;;;;;5024546;28;20025;-81
2021/05/10 07:52:55;;;;;;;1.80;0.70;;;;;;;;;;5007743;28;20029;-79
2021/05/10 07:55:27;;;;;;;0.93;0.60;;;;;;;;;;5009171;28;20375;-79
2021/05/10 07:57:58;;;;;;;1.98;0.80;;;;;;;;;;4992683;28;20040;-79
2021/05/10 08:00:30;;;;;;;0.90;0.50;;;;;;;;;;5009270;28;20089;-79
2021/05/10 08:02:59;;;;;;;1.13;0.63;;;;;;;;;;5027162;28;20063;-79
2021/05/10 08:05:24;;;;;;;1.52;0.70;;;;;;;;;;5009674;28;20055;-80
2021/05/10 08:07:50;;;;;;;1.20;0.60;;;;;;;;;;5042034;28;20467;-80
2021/05/10 08:10:15;;;;;;;1.33;0.70;;;;;;;;;;5001905;28;20022;-79
2021/05/10 08:12:40;;;;;;;1.63;0.80;;;;;;;;;;5007879;28;20044;-79
2021/05/10 08:15:06;;;;;;;1.27;0.60;;;;;;;;;;5018587;28;20101;-79
2021/05/10 08:17:34;;;;;;;1.10;0.60;;;;;;;;;;5030953;28;20028;-79
2021/05/10 08:20:00;;;;;;;1.13;0.65;;;;;;;;;;5025125;28;20029;-79
2021/05/10 08:22:25;;;;;;;1.03;0.50;;;;;;;;;;4991243;28;20187;-79
2021/05/10 08:24:50;;;;;;;1.63;0.67;;;;;;;;;;5024590;28;20108;-79
2021/05/10 08:27:16;;;;;;;0.83;0.50;;;;;;;;;;5007988;28;20026;-80
2021/05/10 08:29:41;;;;;;;1.30;0.67;;;;;;;;;;5007517;28;20029;-80
2021/05/10 08:32:06;;;;;;;1.33;0.70;;;;;;;;;;5008177;28;20028;-79
2021/05/10 08:34:32;;;;;;;1.43;0.70;;;;;;;;;;5009832;28;20053;-79
2021/05/10 08:36:57;;;;;;;1.53;0.60;;;;;;;;;;5025022;28;20534;-79
2021/05/10 08:39:22;;;;;;;0.80;0.40;;;;;;;;;;5008452;28;20013;-80
2021/05/10 08:41:48;;;;;;;0.97;0.50;;;;;;;;;;5024078;28;20103;-79
2021/05/10 08:44:13;;;;;;;1.27;0.60;;;;;;;;;;5007776;28;20093;-79
2021/05/10 08:46:39;;;;;;;1.93;0.60;;;;;;;;;;5008303;28;20059;-79
2021/05/10 08:49:05;;;;;;;1.50;0.60;;;;;;;;;;4990644;28;20025;-80
2021/05/10 08:51:30;;;;;;;1.30;0.60;;;;;;;;;;5007290;28;20034;-79
2021/05/10 08:53:56;;;;;;;1.40;0.70;;;;;;;;;;5007517;28;20033;-79
2021/05/10 08:56:21;;;;;;;1.63;0.70;;;;;;;;;;5006862;28;20268;-79
2021/05/10 08:58:47;;;;;;;1.50;0.77;;;;;;;;;;5024107;28;20538;-79
2021/05/10 09:01:13;;;;;;;0.97;0.60;;;;;;;;;;5023956;28;20476;-79
2021/05/10 09:03:48;;;;;;;1.20;0.63;;;;;;;;;;4994744;28;20030;-79
2021/05/10 09:06:14;;;;;;;0.93;0.52;;;;;;;;;;5025321;28;20057;-79
2021/05/10 09:08:44;;;;;;;1.65;0.50;;;;;;;;;;5024072;28;20025;-79
2021/05/10 09:11:12;;;;;;;1.65;0.70;;;;;;;;;;5023193;28;20544;-79
2021/05/10 09:13:44;;;;;;;1.08;0.68;;;;;;;;;;5041193;28;20411;-79
2021/05/10 09:16:10;;;;;;;1.27;0.55;;;;;;;;;;5024146;28;20392;-79
2021/05/10 09:18:36;;;;;;;1.50;0.60;;;;;;;;;;5020616;28;20037;-79
2021/05/10 09:21:15;;;;;;;1.50;0.70;;;;;;;;;;5020733;28;20038;-79
2021/05/10 09:23:40;;;;;;;1.05;0.60;;;;;;;;;;5008165;28;20030;-79
2021/05/10 09:26:05;;;;;;;1.70;0.70;;;;;;;;;;5006877;28;20101;-79
2021/05/10 09:28:41;;;;;;;1.33;0.70;;;;;;;;;;4989933;28;20496;-80
2021/05/10 09:31:09;;;;;;;1.60;0.80;;;;;;;;;;5003972;28;20045;-79
2021/05/10 09:33:35;;;;;;;2.00;0.70;;;;;;;;;;5003900;28;20037;-79
2021/05/10 09:36:07;;;;;;;1.33;0.70;;;;;;;;;;5023309;28;20396;-79
2021/05/10 09:38:34;;;;;;;0.98;0.70;;;;;;;;;;5022123;28;20029;-79
2021/05/10 09:41:04;;;;;;;1.40;0.60;;;;;;;;;;5021947;28;20025;-79
2021/05/10 09:43:33;;;;;;;1.35;0.65;;;;;;;;;;5005778;28;20071;-79
2021/05/10 09:46:01;;;;;;;2.28;0.80;;;;;;;;;;5023547;28;20021;-80
2021/05/10 09:48:32;;;;;;;0.88;0.57;;;;;;;;;;4986012;28;20026;-79
2021/05/10 09:51:02;;;;;;;1.02;0.50;;;;;;;;;;4996544;28;20503;-79
2021/05/10 09:53:32;;;;;;;1.08;0.68;;;;;;;;;;5006464;28;20546;-79
2021/05/10 09:55:58;;;;;;;1.35;0.55;;;;;;;;;;5006824;28;20037;-79
2021/05/10 09:58:24;;;;;;;2.20;0.70;;;;;;;;;;5006224;28;20029;-79
2021/05/10 10:00:53;;;;;;;;;;;;;;;;;;5006746;22;20076;-79
2021/05/10 10:03:29;;;;;;;1.02;0.57;;;;;;;;;;5050625;28;19967;-79
2021/05/10 10:05:56;;;;;;;1.08;0.60;;;;;;;;;;5026753;28;20036;-79
2021/05/10 10:08:21;;;;;;;2.58;0.65;;;;;;;;;;4993860;28;20025;-79
2021/05/10 10:10:47;;;;;;;1.50;0.63;;;;;;;;;;4986136;28;20024;-80
2021/05/10 10:13:14;;;;;;;1.63;0.70;;;;;;;;;;5018447;28;20033;-80
2021/05/10 10:15:39;;;;;;;0.82;0.50;;;;;;;;;;5001962;28;20032;-80
2021/05/10 10:18:04;;;;;;;1.10;0.70;;;;;;;;;;5005271;28;20021;-80
2021/05/10 10:20:37;;;;;;;1.17;0.70;;;;;;;;;;5003217;28;20083;-79
2021/05/10 10:23:04;;;;;;;1.13;0.60;;;;;;;;;;5001797;28;20396;-79
2021/05/10 10:25:30;;;;;;;0.98;0.50;;;;;;;;;;5007176;28;20032;-79
2021/05/10 10:27:55;;;;;;;1.07;0.50;;;;;;;;;;5005074;28;20025;-79
2021/05/10 10:30:21;;;;;;;1.80;0.70;;;;;;;;;;5004935;28;20096;-79
2021/05/10 10:32:48;;;;;;;1.25;0.73;;;;;;;;;;4992725;28;20149;-79
2021/05/10 10:35:14;;;;;;;1.38;0.60;;;;;;;;;;4985712;28;20484;-79
2021/05/10 10:37:39;;;;;;;1.45;0.60;;;;;;;;;;5014727;28;20024;-79
2021/05/10 10:40:15;;;;;;;1.03;0.53;;;;;;;;;;5004838;28;20091;-80
2021/05/10 10:42:40;;;;;;;1.58;0.55;;;;;;;;;;5003014;28;20108;-79
2021/05/10 10:45:06;;;;;;;1.40;0.60;;;;;;;;;;4993546;28;20068;-79
2021/05/10 10:47:44;;;;;;;1.23;0.57;;;;;;;;;;5005857;28;20021;-79
2021/05/10 10:50:13;;;;;;;1.58;0.65;;;;;;;;;;5017801;28;20525;-79
2021/05/10 10:52:57;;;;;;;1.50;0.70;;;;;;;;;;5018085;28;20104;-79
2021/05/10 10:55:24;;;;;;;0.95;0.60;;;;;;;;;;5001397;28;20037;-79
2021/05/10 10:57:53;;;;;;;1.50;0.65;;;;;;;;;;4985601;28;20053;-79
2021/05/10 11:00:19;;;;;;;1.95;0.60;;;;;;;;;;4998771;28;20392;-79
2021/05/10 11:02:53;;;;;;;0.90;0.60;;;;;;;;;;4999085;28;20029;-78
2021/05/10 11:05:19;;;;;;;1.13;0.50;;;;;;;;;;5000930;28;20029;-78
2021/05/10 11:07:45;;;;;;;1.33;0.50;;;;;;;;;;5000548;28;20029;-76
2021/05/10 11:10:11;;;;;;;1.30;0.60;;;;;;;;;;4997949;28;20041;-80
2021/05/10 11:12:49;;;;;;;1.30;0.57;;;;;;;;;;4985605;28;20072;-79
2021/05/10 11:15:42;;;;;;;2.55;0.50;;;;;;;;;;4996337;28;20032;-79
2021/05/10 11:18:08;;;;;;;2.47;0.60;;;;;;;;;;5012970;28;20033;-79
2021/05/10 11:20:40;;;;;;;1.20;0.70;;;;;;;;;;4982343;28;20025;-79
2021/05/10 11:23:21;;;;;;;2.22;0.70;;;;;;;;;;4989843;28;20242;-79
2021/05/10 11:25:46;;;;;;;1.42;0.60;;;;;;;;;;5034108;28;20044;-79
2021/05/10 11:28:24;;;;;;;0.93;0.60;;;;;;;;;;5001593;28;20047;-79
2021/05/10 11:30:55;;;;;;;1.45;0.60;;;;;;;;;;5052478;28;20017;-79
2021/05/10 11:33:52;;;;;;;4.25;0.73;;;;;;;;;;5034623;28;20033;-78
2021/05/10 11:36:23;;;;;;;1.67;0.70;;;;;;;;;;5038151;28;20028;-78
2021/05/10 11:39:01;;;;;;;1.65;0.77;;;;;;;;;;5023460;28;20052;-78
2021/05/10 11:41:33;;;;;;;3.33;0.85;;;;;;;;;;5017924;28;20400;-78
2021/05/10 11:44:00;;;;;;;1.95;0.77;;;;;;;;;;5017651;28;20123;-78
2021/05/10 11:46:42;;;;;;;1.20;0.60;;;;;;;;;;4991371;28;20117;-78
2021/05/10 11:49:08;;;;;;;1.08;0.70;;;;;;;;;;5002639;28;20030;-78
2021/05/10 11:51:34;;;;;;;;;;;;;;;;;;5018377;28;20033;-78
2021/05/10 11:54:05;;;;;;;2.40;0.80;;;;;;;;;;5003096;28;19909;-77
2021/05/10 11:56:33;;;;;;;4.57;1.00;;;;;;;;;;5004152;28;20036;-78
2021/05/10 11:59:10;;;;;;;1.63;1.00;;;;;;;;;;5005142;28;20036;-78
2021/05/10 12:01:40;;;;;;;;;;;;;;;;;;5007930;28;20017;-78
2021/05/10 12:04:16;;;;;;;2.15;0.80;;;;;;;;;;5007474;28;20028;-78
2021/05/10 12:06:41;;;;;;;3.42;1.00;;;;;;;;;;4995975;28;20039;-79
2021/05/10 12:09:07;;;;;;;1.33;0.77;;;;;;;;;;5010476;28;20025;-79
2021/05/10 12:11:37;;;;;;;2.27;0.73;;;;;;;;;;5010081;28;20033;-79
2021/05/10 12:14:15;;;;;;;1.95;0.68;;;;;;;;;;5002402;28;20026;-79
2021/05/10 12:17:03;;;;;;;1.98;0.88;;;;;;;;;;4990225;28;20549;-79
2021/05/10 12:19:54;;;;;;;3.75;0.90;;;;;;;;;;5008694;28;20029;-79
2021/05/10 12:22:21;;;;;;;2.95;0.70;;;;;;;;;;5009506;28;20025;-79
2021/05/10 12:25:06;;;;;;;2.13;0.80;;;;;;;;;;5011144;28;20036;-79
2021/05/10 12:27:55;;;;;;;1.25;0.63;;;;;;;;;;4996667;28;20140;-79
2021/05/10 12:30:28;;;;;;;1.77;0.73;;;;;;;;;;5022170;28;20048;-79
2021/05/10 12:32:57;;;;;;;2.22;0.98;;;;;;;;;;5029171;28;20031;-78
2021/05/10 12:35:24;;;;;;;2.40;1.08;;;;;;;;;;5026990;28;20017;-79
2021/05/10 12:37:50;;;;;;;2.80;0.80;;;;;;;;;;5007638;28;20119;-79
2021/05/10 12:40:18;;;;;;;3.38;1.00;;;;;;;;;;5024747;28;20028;-78
2021/05/10 12:42:44;;;;;;;3.75;0.90;;;;;;;;;;5006800;28;20514;-79
2021/05/10 12:45:11;;;;;;;2.10;0.80;;;;;;;;;;4990372;28;20029;-79
2021/05/10 12:47:43;;;;;;;1.30;0.73;;;;;;;;;;5005506;28;20488;-79
2021/05/10 12:50:11;;;;;;;1.67;0.98;;;;;;;;;;5012557;28;20021;-78
2021/05/10 12:52:47;;;;;;;4.00;0.90;;;;;;;;;;5005179;28;20035;-79
2021/05/10 12:55:17;;;;;;;2.17;0.80;;;;;;;;;;5009560;28;20089;-79
2021/05/10 12:57:42;;;;;;;3.78;1.05;;;;;;;;;;4991751;28;20018;-79
2021/05/10 13:00:08;;;;;;;2.80;0.90;;;;;;;;;;5005478;28;20032;-79
2021/05/10 13:02:37;;;;;;;3.42;0.90;;;;;;;;;;4993202;28;20511;-79
2021/05/10 13:05:02;;;;;;;2.47;0.88;;;;;;;;;;5006696;28;20030;-78
2021/05/10 13:07:45;;;;;;;1.97;0.90;;;;;;;;;;5005161;28;20427;-79
2021/05/10 13:10:11;;;;;;;1.88;0.93;;;;;;;;;;5004729;28;20448;-79
2021/05/10 13:12:47;;;;;;;3.17;1.30;;;;;;;;;;5005667;28;20033;-78
2021/05/10 13:15:25;;;;;;;1.85;0.85;;;;;;;;;;5010584;28;20090;-79
2021/05/10 13:18:26;;;;;;;2.67;0.90;;;;;;;;;;5003568;28;20026;-78
2021/05/10 13:36:35;;;;;;;2.90;1.05;;;;;;;;;;5023828;28;20083;-79
2021/05/10 13:39:05;;;;;;;2.90;0.82;;;;;;;;;;4994462;28;20021;-79
2021/05/10 13:41:38;;;;;;;2.38;1.05;;;;;;;;;;4994495;28;20022;-79
2021/05/10 13:44:06;;;;;;;2.47;0.85;;;;;;;;;;5005099;28;20026;-79
2021/05/10 13:46:32;;;;;;;3.90;0.88;;;;;;;;;;5003882;28;20407;-79
2021/05/10 13:48:57;;;;;;;1.30;0.90;;;;;;;;;;4992852;28;20024;-79
2021/05/10 13:51:23;;;;;;;1.80;1.00;;;;;;;;;;5021212;28;20537;-79
2021/05/10 13:53:48;;;;;;;4.00;0.87;;;;;;;;;;5021189;28;20021;-79
2021/05/10 13:56:14;;;;;;;2.20;0.90;;;;;;;;;;4988799;28;20525;-79
2021/05/10 13:58:44;;;;;;;2.50;1.03;;;;;;;;;;5004935;28;20468;-80
2021/05/10 14:01:13;;;;;;;4.63;0.80;;;;;;;;;;4999605;28;20087;-79
2021/05/10 14:03:38;;;;;;;1.90;0.90;;;;;;;;;;5006780;28;20395;-79
2021/05/10 14:06:07;;;;;;;2.47;0.90;;;;;;;;;;5039786;28;20027;-79
2021/05/10 14:08:33;;;;;;;3.05;0.90;;;;;;;;;;5010009;28;20025;-79
2021/05/10 14:10:59;;;;;;;;;;;;;;;;;;5011586;28;20052;-79
2021/05/10 14:13:24;;;;;;;2.78;0.75;;;;;;;;;;5027516;28;19912;-79
2021/05/10 14:15:50;;;;;;;2.10;0.73;;;;;;;;;;5006487;28;20029;-79
2021/05/10 14:18:18;;;;;;;3.13;0.83;;;;;;;;;;4987945;28;20086;-79
2021/05/10 14:23:27;;;;;;;1.95;0.80;;;;;;;;;;5008020;28;20554;-79
2021/05/10 14:25:53;;;;;;;2.37;1.00;;;;;;;;;;4987414;28;20033;-79
2021/05/10 14:28:18;;;;;;;1.30;0.80;;;;;;;;;;5003349;28;20457;-79
2021/05/10 14:30:44;;;;;;;1.60;0.83;;;;;;;;;;4998735;28;20048;-79
2021/05/10 14:33:09;;;;;;;2.03;0.90;;;;;;;;;;5001689;28;20037;-79
2021/05/10 14:35:34;;;;;;;5.03;0.90;;;;;;;;;;4993929;28;20029;-79
2021/05/10 14:38:00;;;;;;;1.60;0.90;;;;;;;;;;5022881;28;20032;-79
2021/05/10 14:40:25;;;;;;;2.50;0.83;;;;;;;;;;5006103;28;20058;-79
2021/05/10 14:42:50;;;;;;;4.73;0.90;;;;;;;;;;5007159;28;20043;-79
2021/05/10 14:45:16;;;;;;;1.77;0.80;;;;;;;;;;5002533;28;20033;-79
2021/05/10 14:47:41;;;;;;;5.73;0.90;;;;;;;;;;4987453;28;20033;-79
2021/05/10 14:50:07;;;;;;;2.33;1.00;;;;;;;;;;4987617;28;20450;-79
2021/05/10 14:52:32;;;;;;;1.93;0.90;;;;;;;;;;5004142;28;20033;-79
2021/05/10 14:54:57;;;;;;;1.70;0.80;;;;;;;;;;4986942;28;20049;-79
2021/05/10 14:57:23;;;;;;;2.23;0.97;;;;;;;;;;5001783;28;20468;-78
2021/05/10 14:59:48;;;;;;;2.77;0.83;;;;;;;;;;5018051;28;20399;-78
2021/05/10 15:02:13;;;;;;;2.20;0.80;;;;;;;;;;5001735;28;20412;-79
2021/05/10 15:04:39;;;;;;;5.90;1.00;;;;;;;;;;5017919;28;20036;-78
2021/05/10 15:07:04;;;;;;;3.33;1.00;;;;;;;;;;5001533;28;20056;-78
2021/05/10 15:09:30;;;;;;;1.77;0.83;;;;;;;;;;5001627;28;20025;-78
2021/05/10 15:11:55;;;;;;;1.90;0.80;;;;;;;;;;5004275;28;20061;-78